createdAt,value
2018-06-13T00:00:58.134Z,4.70
2018-06-13T00:03:26.414Z,5.10
2018-06-13T00:05:54.671Z,4.28
2018-06-13T00:08:22.931Z,4.00
2018-06-13T00:10:51.206Z,3.85
2018-06-13T00:13:19.531Z,4.33
2018-06-13T00:15:47.832Z,4.78
2018-06-13T00:18:16.121Z,4.20
2018-06-13T00:20:44.354Z,4.62
2018-06-13T00:23:12.621Z,5.03
2018-06-13T00:25:41.359Z,4.10
2018-06-13T00:28:09.738Z,4.10
2018-06-13T00:30:37.976Z,3.42
2018-06-13T00:33:06.226Z,4.60
2018-06-13T00:35:34.487Z,3.17
2018-06-13T00:38:02.731Z,4.28
2018-06-13T00:40:30.943Z,3.22
2018-06-13T00:42:59.230Z,4.72
2018-06-13T00:45:27.482Z,4.33
2018-06-13T00:47:55.730Z,4.10
2018-06-13T00:50:23.946Z,4.30
2018-06-13T00:52:52.293Z,3.80
2018-06-13T00:55:20.491Z,4.33
2018-06-13T00:57:48.787Z,3.50
2018-06-13T01:00:17.126Z,3.25
2018-06-13T01:02:45.466Z,3.22
2018-06-13T01:05:13.665Z,3.72
2018-06-13T01:07:41.951Z,3.47
2018-06-13T01:10:10.198Z,4.47
2018-06-13T01:12:38.449Z,3.83
2018-06-13T01:15:06.681Z,3.58
2018-06-13T01:17:34.908Z,3.70
2018-06-13T01:20:03.165Z,3.80
2018-06-13T01:22:31.424Z,3.42
2018-06-13T01:24:59.712Z,3.60
2018-06-13T01:27:28.127Z,3.20
2018-06-13T01:29:56.394Z,2.80
2018-06-13T01:32:24.610Z,3.08
2018-06-13T01:34:53.012Z,3.30
2018-06-13T01:37:21.275Z,2.75
2018-06-13T01:39:49.588Z,2.95
2018-06-13T01:42:18.167Z,2.90
2018-06-13T01:44:46.431Z,2.50
2018-06-13T01:47:14.754Z,2.80
2018-06-13T01:49:43.012Z,3.08
2018-06-13T01:52:11.320Z,2.92
2018-06-13T01:54:39.624Z,2.90
2018-06-13T01:57:07.713Z,2.43
2018-06-13T01:59:36.122Z,2.98
2018-06-13T02:02:04.424Z,2.70
2018-06-13T02:04:32.645Z,3.20
2018-06-13T02:07:00.905Z,3.20
2018-06-13T02:09:29.240Z,3.00
2018-06-13T02:11:57.559Z,3.12
2018-06-13T02:14:25.953Z,2.90
2018-06-13T02:16:54.227Z,2.87
2018-06-13T02:19:22.463Z,3.17
2018-06-13T02:21:52.164Z,2.40
2018-06-13T02:24:20.401Z,2.70
2018-06-13T02:26:48.662Z,2.50
2018-06-13T02:29:16.704Z,2.87
2018-06-13T02:31:45.008Z,2.60
2018-06-13T02:34:13.284Z,2.98
2018-06-13T02:36:41.532Z,3.08
2018-06-13T02:39:09.985Z,2.80
2018-06-13T02:41:38.243Z,2.50
2018-06-13T02:44:06.711Z,2.80
2018-06-13T02:46:35.025Z,2.92
2018-06-13T02:49:03.851Z,3.00
2018-06-13T02:51:32.126Z,3.70
2018-06-13T02:54:00.472Z,3.10
2018-06-13T02:56:28.726Z,2.90
2018-06-13T02:58:57.048Z,3.40
2018-06-13T03:01:25.504Z,3.30
2018-06-13T03:03:53.891Z,3.60
2018-06-13T03:06:22.091Z,2.95
2018-06-13T03:08:50.494Z,3.67
2018-06-13T03:11:18.814Z,3.60
2018-06-13T03:13:47.064Z,3.30
2018-06-13T03:16:15.468Z,3.15
2018-06-13T03:18:43.758Z,4.00
2018-06-13T03:21:12.006Z,3.85
2018-06-13T03:23:40.267Z,4.00
2018-06-13T03:26:08.544Z,3.33
2018-06-13T03:28:36.609Z,3.40
2018-06-13T03:31:04.861Z,3.90
2018-06-13T03:33:33.144Z,4.12
2018-06-13T03:36:01.378Z,3.95
2018-06-13T03:38:29.686Z,3.50
2018-06-13T03:40:57.937Z,3.30
2018-06-13T03:43:26.286Z,3.20
2018-06-13T03:45:55.634Z,3.72
2018-06-13T03:48:23.965Z,3.60
2018-06-13T03:50:52.391Z,3.98
2018-06-13T03:53:20.727Z,4.03
2018-06-13T03:55:49.088Z,4.45
2018-06-13T03:58:17.334Z,3.70
2018-06-13T04:00:45.645Z,3.85
2018-06-13T04:03:14.062Z,3.80
2018-06-13T04:05:42.458Z,3.80
2018-06-13T04:08:10.675Z,3.60
2018-06-13T04:10:38.930Z,3.25
2018-06-13T04:13:07.084Z,3.50
2018-06-13T04:15:35.483Z,3.70
2018-06-13T04:18:05.827Z,3.17
2018-06-13T04:20:34.302Z,3.35
2018-06-13T04:23:02.506Z,3.77
2018-06-13T04:25:30.714Z,3.90
2018-06-13T04:27:58.913Z,3.73
2018-06-13T04:30:27.154Z,3.60
2018-06-13T04:32:55.400Z,3.80
2018-06-13T04:35:23.599Z,3.70
2018-06-13T04:37:52.028Z,3.70
2018-06-13T04:40:20.073Z,4.20
2018-06-13T04:42:48.258Z,3.20
2018-06-13T04:45:16.490Z,3.58
2018-06-13T04:47:44.669Z,4.20
2018-06-13T04:50:12.859Z,3.95
2018-06-13T04:52:41.058Z,3.70
2018-06-13T04:55:09.366Z,3.30
2018-06-13T04:57:37.551Z,4.40
2018-06-13T05:00:05.781Z,3.40
2018-06-13T05:02:34.134Z,3.58
2018-06-13T05:05:02.347Z,3.30
2018-06-13T05:07:30.615Z,3.60
2018-06-13T05:09:58.860Z,3.45
2018-06-13T05:12:27.178Z,3.30
2018-06-13T05:14:55.405Z,3.70
2018-06-13T05:17:23.600Z,4.03
2018-06-13T05:19:51.824Z,3.60
2018-06-13T05:22:20.023Z,3.33
2018-06-13T05:24:48.352Z,3.50
2018-06-13T05:27:16.534Z,3.40
2018-06-13T05:29:44.761Z,3.60
2018-06-13T05:32:12.978Z,3.20
2018-06-13T05:34:41.165Z,3.92
2018-06-13T05:37:09.366Z,4.00
2018-06-13T05:41:06.915Z,3.15
2018-06-13T05:46:17.107Z,3.40
2018-06-13T05:48:45.349Z,3.98
2018-06-13T05:51:13.577Z,3.80
2018-06-13T05:53:41.818Z,3.95
2018-06-13T05:56:10.046Z,3.83
2018-06-13T05:58:38.287Z,3.73
2018-06-13T06:01:06.487Z,3.90
2018-06-13T06:03:34.798Z,3.60
2018-06-13T06:06:02.964Z,3.72
2018-06-13T06:08:31.212Z,3.90
2018-06-13T06:10:59.428Z,3.45
2018-06-13T06:13:27.949Z,3.50
2018-06-13T06:15:56.156Z,3.80
2018-06-13T06:18:24.346Z,4.37
2018-06-13T06:20:52.575Z,4.08
2018-06-13T06:23:20.814Z,3.70
2018-06-13T06:25:49.061Z,3.70
2018-06-13T06:28:17.284Z,3.60
2018-06-13T06:30:45.622Z,3.50
2018-06-13T06:33:13.848Z,3.70
2018-06-13T06:35:42.904Z,2.92
2018-06-13T06:38:11.100Z,2.62
2018-06-13T06:40:39.838Z,3.25
2018-06-13T06:43:08.261Z,3.30
2018-06-13T06:45:36.501Z,3.22
2018-06-13T06:48:04.764Z,3.20
2018-06-13T06:50:32.986Z,3.17
2018-06-13T06:53:01.209Z,3.40
2018-06-13T06:55:29.589Z,3.40
2018-06-13T06:57:57.814Z,3.30
2018-06-13T07:00:26.058Z,3.47
2018-06-13T07:02:54.333Z,3.20
2018-06-13T07:05:23.326Z,3.35
2018-06-13T07:07:51.584Z,3.45
2018-06-13T07:10:19.811Z,2.90
2018-06-13T07:12:47.967Z,3.70
2018-06-13T07:15:16.210Z,3.20
2018-06-13T07:17:44.412Z,3.20
2018-06-13T07:20:12.673Z,3.40
2018-06-13T07:22:40.886Z,3.30
2018-06-13T07:25:09.146Z,2.80
2018-06-13T07:27:37.332Z,3.60
2018-06-13T07:30:05.608Z,3.80
2018-06-13T07:32:33.565Z,4.00
2018-06-13T07:35:01.802Z,4.25
2018-06-13T07:37:30.106Z,3.80
2018-06-13T07:39:58.315Z,3.80
2018-06-13T07:42:27.408Z,3.42
2018-06-13T07:44:55.601Z,3.55
2018-06-13T07:47:23.849Z,3.50
2018-06-13T07:49:52.352Z,3.80
2018-06-13T07:52:20.593Z,3.70
2018-06-13T07:54:48.762Z,3.50
2018-06-13T07:57:17.036Z,3.72
2018-06-13T07:59:45.850Z,3.08
2018-06-13T08:02:14.151Z,2.50
2018-06-13T08:04:42.412Z,2.10
2018-06-13T08:07:10.694Z,1.90
2018-06-13T08:09:39.105Z,2.00
2018-06-13T08:12:07.372Z,1.70
2018-06-13T08:14:35.613Z,1.60
2018-06-13T08:17:03.886Z,1.07
2018-06-13T08:19:32.107Z,1.20
2018-06-13T08:22:00.356Z,1.00
2018-06-13T08:24:29.598Z,0.85
2018-06-13T08:26:57.810Z,1.52
2018-06-13T08:29:26.111Z,1.15
2018-06-13T08:31:54.320Z,1.20
2018-06-13T08:34:22.543Z,1.40
2018-06-13T08:36:50.762Z,1.20
2018-06-13T08:39:19.061Z,1.20
2018-06-13T08:41:47.466Z,1.50
2018-06-13T08:44:15.828Z,1.70
2018-06-13T08:46:45.177Z,1.00
2018-06-13T08:49:13.434Z,1.00
2018-06-13T08:51:41.739Z,1.22
2018-06-13T08:54:10.086Z,1.22
2018-06-13T08:56:38.324Z,1.00
2018-06-13T08:59:06.577Z,1.20
2018-06-13T09:01:34.809Z,1.65
2018-06-13T09:04:03.082Z,1.10
2018-06-13T09:06:31.423Z,2.00
2018-06-13T09:08:59.919Z,1.00
2018-06-13T09:11:28.126Z,1.20
2018-06-13T09:13:56.339Z,1.65
2018-06-13T09:16:24.568Z,1.60
2018-06-13T09:18:52.821Z,1.55
2018-06-13T09:21:21.073Z,1.77
2018-06-13T09:23:49.392Z,1.40
2018-06-13T09:26:17.658Z,1.60
2018-06-13T09:28:45.867Z,1.60
2018-06-13T09:31:14.179Z,1.35
2018-06-13T09:33:42.418Z,1.60
2018-06-13T09:36:10.709Z,1.20
2018-06-13T09:38:39.044Z,1.30
2018-06-13T09:41:07.237Z,1.10
2018-06-13T09:43:35.493Z,1.30
2018-06-13T09:46:03.846Z,1.40
2018-06-13T09:48:32.033Z,1.50
2018-06-13T09:51:00.229Z,1.45
2018-06-13T09:53:28.518Z,1.40
2018-06-13T09:55:56.800Z,1.90
2018-06-13T09:58:25.053Z,1.57
2018-06-13T10:00:58.825Z,1.50
2018-06-13T10:03:27.109Z,2.05
2018-06-13T10:05:55.380Z,1.57
2018-06-13T10:08:23.590Z,1.90
2018-06-13T10:10:51.805Z,1.70
2018-06-13T10:13:20.002Z,1.90
2018-06-13T10:15:48.248Z,1.90
2018-06-13T10:18:16.537Z,1.52
2018-06-13T10:20:44.755Z,1.30
2018-06-13T10:23:13.009Z,1.20
2018-06-13T10:25:41.218Z,1.30
2018-06-13T10:28:09.442Z,1.57
2018-06-13T10:30:37.686Z,1.50
2018-06-13T10:33:05.942Z,1.50
2018-06-13T10:35:34.145Z,1.40
2018-06-13T10:38:02.328Z,1.50
2018-06-13T10:40:30.519Z,1.70
2018-06-13T10:42:58.552Z,1.75
2018-06-13T10:45:26.889Z,1.70
2018-06-13T10:47:55.134Z,1.70
2018-06-13T10:50:23.386Z,1.42
2018-06-13T10:52:53.418Z,1.50
2018-06-13T10:55:21.668Z,1.32
2018-06-13T10:57:49.945Z,1.60
2018-06-13T11:00:18.163Z,1.80
2018-06-13T11:02:46.404Z,1.87
2018-06-13T11:05:14.644Z,1.25
2018-06-13T11:07:42.904Z,1.50
2018-06-13T11:10:11.402Z,2.00
2018-06-13T11:12:39.602Z,1.93
2018-06-13T11:15:07.847Z,1.87
2018-06-13T11:17:36.155Z,1.50
2018-06-13T11:20:04.677Z,2.02
2018-06-13T11:22:33.005Z,1.60
2018-06-13T11:25:01.215Z,1.40
2018-06-13T11:27:29.460Z,1.95
2018-06-13T11:29:57.675Z,1.82
2018-06-13T11:32:26.146Z,1.50
2018-06-13T11:35:03.705Z,1.95
2018-06-13T11:37:31.917Z,1.50
2018-06-13T11:40:00.199Z,1.67
2018-06-13T11:42:28.430Z,1.70
2018-06-13T11:44:56.678Z,1.60
2018-06-13T11:47:25.028Z,2.40
2018-06-13T11:49:53.347Z,1.45
2018-06-13T11:52:21.675Z,1.80
2018-06-13T11:54:50.025Z,1.90
2018-06-13T11:57:19.090Z,1.60
2018-06-13T11:59:47.440Z,1.70
2018-06-13T12:02:15.905Z,1.60
2018-06-13T12:04:44.427Z,1.22
2018-06-13T12:07:12.663Z,1.75
2018-06-13T12:09:40.909Z,1.40
2018-06-13T12:12:09.326Z,1.60
2018-06-13T12:14:37.637Z,1.40
2018-06-13T12:17:05.858Z,1.47
2018-06-13T12:19:34.027Z,1.50
2018-06-13T12:22:02.238Z,1.27
2018-06-13T12:24:30.466Z,1.60
2018-06-13T12:26:58.782Z,1.80
2018-06-13T12:29:27.358Z,1.70
2018-06-13T12:31:55.657Z,1.40
2018-06-13T12:34:23.963Z,1.60
2018-06-13T12:36:52.189Z,1.70
2018-06-13T12:39:20.418Z,1.42
2018-06-13T12:41:48.948Z,1.50
2018-06-13T12:44:17.245Z,1.50
2018-06-13T12:46:45.442Z,1.80
2018-06-13T12:49:13.670Z,2.15
2018-06-13T12:51:41.926Z,1.40
2018-06-13T12:54:10.169Z,1.67
2018-06-13T12:56:38.443Z,1.42
2018-06-13T12:59:06.633Z,1.82
2018-06-13T13:01:34.931Z,2.00
2018-06-13T13:04:03.261Z,1.40
2018-06-13T13:06:31.574Z,1.92
2018-06-13T13:09:01.196Z,2.00
2018-06-13T13:11:29.575Z,1.60
2018-06-13T13:13:57.793Z,2.70
2018-06-13T13:16:25.945Z,2.30
2018-06-13T13:18:54.188Z,2.03
2018-06-13T13:21:22.409Z,2.17
2018-06-13T13:23:50.690Z,1.90
2018-06-13T13:26:18.919Z,2.25
2018-06-13T13:28:47.105Z,2.20
2018-06-13T13:31:15.363Z,2.27
2018-06-13T13:33:43.325Z,2.10
2018-06-13T13:36:11.870Z,2.00
2018-06-13T13:38:40.076Z,2.35
2018-06-13T13:41:08.337Z,2.35
2018-06-13T13:43:36.601Z,2.22
2018-06-13T13:46:04.998Z,2.27
2018-06-13T13:48:33.183Z,1.70
2018-06-13T13:51:01.436Z,2.10
2018-06-13T13:53:29.687Z,2.67
2018-06-13T13:55:57.967Z,1.90
2018-06-13T13:58:26.181Z,1.90
2018-06-13T14:00:54.357Z,2.02
2018-06-13T14:03:22.539Z,1.92
2018-06-13T14:05:50.761Z,2.30
2018-06-13T14:08:18.987Z,2.00
2018-06-13T14:10:47.170Z,2.40
2018-06-13T14:13:15.394Z,2.83
2018-06-13T14:15:43.712Z,2.20
2018-06-13T14:18:11.892Z,2.08
2018-06-13T14:20:40.169Z,3.08
2018-06-13T14:23:08.357Z,3.10
2018-06-13T14:25:36.679Z,2.60
2018-06-13T14:28:04.999Z,2.33
2018-06-13T14:30:33.254Z,2.83
2018-06-13T14:33:01.449Z,2.20
2018-06-13T14:35:29.719Z,2.80
2018-06-13T14:37:58.035Z,2.10
2018-06-13T14:40:26.283Z,1.95
2018-06-13T14:42:54.550Z,2.80
2018-06-13T14:45:22.863Z,2.40
2018-06-13T14:47:51.206Z,2.20
2018-06-13T14:50:19.673Z,2.30
2018-06-13T14:52:47.908Z,3.37
2018-06-13T14:55:16.275Z,2.63
2018-06-13T14:57:44.639Z,2.80
2018-06-13T15:00:12.829Z,2.30
2018-06-13T15:02:41.025Z,2.60
2018-06-13T15:05:09.314Z,2.72
2018-06-13T15:07:38.644Z,2.55
2018-06-13T15:10:07.188Z,2.67
2018-06-13T15:12:35.411Z,2.90
2018-06-13T15:15:03.621Z,2.55
2018-06-13T15:17:31.972Z,2.27
2018-06-13T15:20:00.694Z,2.40
2018-06-13T15:22:29.305Z,2.27
2018-06-13T15:24:57.693Z,2.55
2018-06-13T15:27:25.960Z,2.40
2018-06-13T15:29:54.267Z,2.60
2018-06-13T15:32:22.586Z,2.65
2018-06-13T15:34:50.956Z,2.10
2018-06-13T15:37:19.229Z,2.25
2018-06-13T15:39:48.687Z,2.50
2018-06-13T15:42:17.117Z,2.50
2018-06-13T15:44:45.489Z,2.43
2018-06-13T15:47:13.915Z,2.37
2018-06-13T15:49:42.114Z,2.15
2018-06-13T15:52:10.324Z,2.10
2018-06-13T15:54:38.426Z,2.58
2018-06-13T15:57:06.646Z,2.40
2018-06-13T15:59:37.337Z,2.52
2018-06-13T16:02:05.613Z,2.90
2018-06-13T16:04:33.850Z,2.50
2018-06-13T16:07:04.153Z,2.75
2018-06-13T16:09:32.468Z,2.90
2018-06-13T16:12:00.736Z,3.10
2018-06-13T16:14:29.125Z,2.90
2018-06-13T16:16:59.602Z,3.40
2018-06-13T16:19:27.931Z,3.30
2018-06-13T16:21:56.308Z,2.90
2018-06-13T16:24:24.656Z,2.40
2018-06-13T16:26:52.864Z,2.70
2018-06-13T16:29:21.113Z,3.37
2018-06-13T16:31:49.343Z,2.80
2018-06-13T16:34:17.596Z,3.30
2018-06-13T16:36:45.986Z,2.85
2018-06-13T16:39:14.321Z,3.10
2018-06-13T16:41:42.553Z,3.60
2018-06-13T16:44:23.863Z,2.42
2018-06-13T16:47:04.686Z,3.60
2018-06-13T16:49:44.937Z,3.80
2018-06-13T16:52:25.648Z,3.40
2018-06-13T16:55:17.334Z,3.80
2018-06-13T16:57:46.845Z,4.08
2018-06-13T17:00:15.133Z,3.60
2018-06-13T17:02:43.472Z,3.73
2018-06-13T17:05:24.107Z,3.10
2018-06-13T17:08:05.467Z,3.40
2018-06-13T17:10:46.305Z,3.00
2018-06-13T17:13:16.062Z,3.58
2018-06-13T17:15:44.282Z,3.05
2018-06-13T17:18:12.992Z,3.30
2018-06-13T17:20:54.095Z,3.50
2018-06-13T17:23:35.343Z,3.00
2018-06-13T17:26:03.688Z,2.98
2018-06-13T17:28:32.150Z,3.80
2018-06-13T17:31:13.226Z,3.40
2018-06-13T17:33:54.149Z,3.80
2018-06-13T17:36:34.805Z,3.80
2018-06-13T17:39:15.174Z,2.90
2018-06-13T17:41:43.578Z,3.40
2018-06-13T17:44:16.031Z,3.10
2018-06-13T17:46:56.852Z,3.70
2018-06-13T17:49:31.985Z,3.27
2018-06-13T17:52:12.266Z,3.00
2018-06-13T17:54:41.015Z,3.67
2018-06-13T17:57:21.903Z,3.05
2018-06-13T17:59:51.750Z,3.10
2018-06-13T18:02:33.081Z,3.20
2018-06-13T18:05:15.424Z,3.20
2018-06-13T18:07:56.164Z,3.10
2018-06-13T18:10:24.967Z,3.22
2018-06-13T18:13:00.083Z,2.80
2018-06-13T18:15:28.983Z,3.10
2018-06-13T18:18:02.992Z,2.83
2018-06-13T18:20:31.887Z,3.62
2018-06-13T18:23:14.827Z,3.65
2018-06-13T18:25:55.701Z,3.30
2018-06-13T18:28:36.188Z,3.25
2018-06-13T18:31:04.516Z,3.20
2018-06-13T18:33:33.285Z,3.30
2018-06-13T18:36:07.360Z,3.47
2018-06-13T18:38:48.302Z,3.10
2018-06-13T18:41:29.121Z,2.83
2018-06-13T18:44:09.976Z,3.50
2018-06-13T18:46:44.189Z,2.90
2018-06-13T18:49:24.517Z,3.30
2018-06-13T18:51:52.810Z,3.72
2018-06-13T18:54:33.201Z,3.37
2018-06-13T18:57:02.340Z,3.17
2018-06-13T18:59:30.629Z,3.10
2018-06-13T19:02:11.604Z,3.17
2018-06-13T19:04:39.904Z,3.10
2018-06-13T19:07:08.176Z,3.50
2018-06-13T19:09:48.895Z,2.80
2018-06-13T19:12:17.731Z,2.62
2018-06-13T19:14:49.014Z,3.27
2018-06-13T19:17:17.403Z,3.55
2018-06-13T19:19:45.717Z,3.30
2018-06-13T19:22:14.264Z,3.20
2018-06-13T19:24:43.540Z,3.30
2018-06-13T19:27:11.849Z,2.58
2018-06-13T19:29:52.601Z,3.10
2018-06-13T19:32:28.780Z,3.10
2018-06-13T19:34:57.277Z,3.08
2018-06-13T19:37:25.799Z,3.05
2018-06-13T19:39:56.653Z,3.50
2018-06-13T19:42:31.381Z,3.50
2018-06-13T19:45:06.692Z,3.50
2018-06-13T19:47:46.052Z,3.15
2018-06-13T19:50:27.010Z,3.60
2018-06-13T19:53:13.212Z,3.00
2018-06-13T19:56:00.053Z,2.90
2018-06-13T19:58:30.129Z,3.05
2018-06-13T20:00:58.344Z,3.30
2018-06-13T20:03:44.155Z,3.33
2018-06-13T20:06:17.300Z,3.10
2018-06-13T20:08:58.446Z,3.42
2018-06-13T20:11:30.756Z,2.87
2018-06-13T20:14:04.454Z,2.42
2018-06-13T20:16:52.352Z,2.33
2018-06-13T20:19:35.606Z,3.25
2018-06-13T20:22:04.100Z,3.30
2018-06-13T20:24:33.297Z,2.80
2018-06-13T20:27:06.959Z,2.92
2018-06-13T20:29:40.760Z,2.90
2018-06-13T20:32:09.030Z,2.80
2018-06-13T20:34:37.434Z,3.70
2018-06-13T20:37:05.704Z,3.02
2018-06-13T20:39:34.026Z,3.50
2018-06-13T20:42:02.275Z,3.00
2018-06-13T20:44:30.638Z,2.67
2018-06-13T20:46:58.876Z,2.90
2018-06-13T20:49:27.205Z,3.10
2018-06-13T20:51:57.197Z,3.20
2018-06-13T20:54:38.527Z,3.40
2018-06-13T20:57:19.176Z,3.20
2018-06-13T20:59:47.476Z,3.80
2018-06-13T21:02:17.073Z,3.17
2018-06-13T21:04:57.871Z,3.40
2018-06-13T21:07:38.450Z,4.33
2018-06-13T21:10:06.855Z,2.90
2018-06-13T21:12:47.264Z,2.97
2018-06-13T21:15:18.848Z,3.50
2018-06-13T21:17:47.250Z,2.92
2018-06-13T21:20:27.917Z,3.80
2018-06-13T21:22:56.410Z,3.60
2018-06-13T21:25:24.483Z,3.50
2018-06-13T21:27:53.044Z,3.10
2018-06-13T21:30:34.909Z,2.80
2018-06-13T21:33:03.214Z,3.62
2018-06-13T21:35:43.480Z,2.98
2018-06-13T21:38:24.057Z,2.72
2018-06-13T21:40:52.397Z,2.85
2018-06-13T21:43:32.641Z,3.10
2018-06-13T21:46:02.016Z,3.20
2018-06-13T21:48:43.245Z,2.90
2018-06-13T21:51:11.496Z,3.22
2018-06-13T21:53:41.374Z,3.00
2018-06-13T21:56:09.688Z,3.00
2018-06-13T21:58:50.391Z,3.00
2018-06-13T22:01:31.132Z,3.30
2018-06-13T22:04:11.869Z,3.25
2018-06-13T22:06:40.187Z,2.80
2018-06-13T22:09:20.487Z,3.20
2018-06-13T22:12:01.361Z,2.62
2018-06-13T22:14:42.254Z,2.80
2018-06-13T22:17:22.687Z,3.00
2018-06-13T22:19:50.941Z,2.77
2018-06-13T22:22:31.432Z,2.80
2018-06-13T22:25:11.906Z,3.37
2018-06-13T22:27:40.186Z,2.83
2018-06-13T22:30:20.478Z,3.20
2018-06-13T22:32:48.804Z,3.15
2018-06-13T22:35:17.052Z,3.50
2018-06-13T22:37:57.631Z,3.00
2018-06-13T22:40:38.460Z,3.20
2018-06-13T22:43:18.924Z,3.50
2018-06-13T22:45:59.568Z,3.10
2018-06-13T22:48:40.180Z,2.92
2018-06-13T22:51:08.393Z,3.50
2018-06-13T22:53:48.561Z,3.50
2018-06-13T22:56:29.489Z,3.30
2018-06-13T22:59:09.842Z,2.90
2018-06-13T23:01:38.055Z,3.30
2018-06-13T23:04:18.326Z,3.27
2018-06-13T23:06:46.578Z,3.40
2018-06-13T23:09:26.871Z,3.27
2018-06-13T23:12:07.646Z,3.35
2018-06-13T23:14:41.159Z,3.10
2018-06-13T23:17:09.590Z,3.25
2018-06-13T23:19:38.061Z,3.00
2018-06-13T23:22:18.978Z,3.25
2018-06-13T23:24:48.245Z,3.15
2018-06-13T23:27:28.540Z,3.80
2018-06-13T23:30:09.168Z,3.10
2018-06-13T23:32:37.454Z,3.12
2018-06-13T23:35:17.656Z,3.05
2018-06-13T23:37:58.299Z,3.07
2018-06-13T23:40:26.620Z,3.50
2018-06-13T23:43:07.144Z,3.00
2018-06-13T23:45:47.909Z,2.90
2018-06-13T23:48:28.856Z,3.52
2018-06-13T23:50:59.702Z,3.00
2018-06-13T23:53:40.451Z,3.00
2018-06-13T23:56:21.402Z,2.90
2018-06-13T23:58:50.581Z,2.92
